sensor_id;sensor_type;location;lat;lon;timestamp;P1;durP1;ratioP1;P2;durP2;ratioP2
16543;SDS011;8384;47.996;7.786;2023-06-22T00:00:54;7.97;;;5.77;;
16543;SDS011;8384;47.996;7.786;2023-06-22T00:03:19;6.80;;;5.40;;
16543;SDS011;8384;47.996;7.786;2023-06-22T00:05:46;8.07;;;6.10;;
16543;SDS011;8384;47.996;7.786;2023-06-22T00:08:12;5.57;;;4.97;;
16543;SDS011;8384;47.996;7.786;2023-06-22T00:10:38;6.57;;;5.90;;
16543;SDS011;8384;47.996;7.786;2023-06-22T00:13:04;8.33;;;5.97;;
16543;SDS011;8384;47.996;7.786;2023-06-22T00:15:31;8.67;;;6.43;;
16543;SDS011;8384;47.996;7.786;2023-06-22T00:17:56;7.30;;;6.23;;
16543;SDS011;8384;47.996;7.786;2023-06-22T00:20:22;8.13;;;5.57;;
16543;SDS011;8384;47.996;7.786;2023-06-22T00:22:48;6.73;;;5.53;;
16543;SDS011;8384;47.996;7.786;2023-06-22T00:25:13;7.23;;;5.90;;
16543;SDS011;8384;47.996;7.786;2023-06-22T00:27:38;8.17;;;5.90;;
16543;SDS011;8384;47.996;7.786;2023-06-22T00:30:03;7.77;;;5.70;;
16543;SDS011;8384;47.996;7.786;2023-06-22T00:32:29;8.20;;;6.43;;
16543;SDS011;8384;47.996;7.786;2023-06-22T00:34:54;7.90;;;5.80;;
16543;SDS011;8384;47.996;7.786;2023-06-22T00:37:20;7.77;;;6.20;;
16543;SDS011;8384;47.996;7.786;2023-06-22T00:39:50;7.13;;;6.27;;
16543;SDS011;8384;47.996;7.786;2023-06-22T00:42:15;8.60;;;6.20;;
16543;SDS011;8384;47.996;7.786;2023-06-22T00:44:41;8.60;;;5.97;;
16543;SDS011;8384;47.996;7.786;2023-06-22T00:47:06;9.17;;;6.43;;
16543;SDS011;8384;47.996;7.786;2023-06-22T00:49:32;8.23;;;6.20;;
16543;SDS011;8384;47.996;7.786;2023-06-22T00:51:57;6.27;;;5.67;;
16543;SDS011;8384;47.996;7.786;2023-06-22T00:54:23;7.10;;;6.33;;
16543;SDS011;8384;47.996;7.786;2023-06-22T00:56:53;7.33;;;6.60;;
16543;SDS011;8384;47.996;7.786;2023-06-22T00:59:21;7.13;;;6.43;;
16543;SDS011;8384;47.996;7.786;2023-06-22T01:01:46;7.23;;;6.53;;
16543;SDS011;8384;47.996;7.786;2023-06-22T01:04:12;10.93;;;6.50;;
16543;SDS011;8384;47.996;7.786;2023-06-22T01:06:38;9.80;;;6.13;;
16543;SDS011;8384;47.996;7.786;2023-06-22T01:09:19;8.33;;;6.47;;
16543;SDS011;8384;47.996;7.786;2023-06-22T01:11:52;8.20;;;6.70;;
16543;SDS011;8384;47.996;7.786;2023-06-22T01:14:28;9.13;;;6.43;;
16543;SDS011;8384;47.996;7.786;2023-06-22T01:17:02;9.03;;;6.20;;
16543;SDS011;8384;47.996;7.786;2023-06-22T01:19:46;7.33;;;6.53;;
16543;SDS011;8384;47.996;7.786;2023-06-22T01:22:13;9.00;;;6.47;;
16543;SDS011;8384;47.996;7.786;2023-06-22T01:24:45;7.63;;;6.93;;
16543;SDS011;8384;47.996;7.786;2023-06-22T01:30:29;11.97;;;7.50;;
16543;SDS011;8384;47.996;7.786;2023-06-22T01:32:59;8.90;;;6.30;;
16543;SDS011;8384;47.996;7.786;2023-06-22T01:35:26;8.07;;;7.27;;
16543;SDS011;8384;47.996;7.786;2023-06-22T01:37:52;9.30;;;7.30;;
16543;SDS011;8384;47.996;7.786;2023-06-22T01:40:18;11.43;;;6.90;;
16543;SDS011;8384;47.996;7.786;2023-06-22T01:42:44;11.07;;;7.73;;
16543;SDS011;8384;47.996;7.786;2023-06-22T01:45:10;10.83;;;8.50;;
16543;SDS011;8384;47.996;7.786;2023-06-22T01:47:36;9.57;;;7.37;;
16543;SDS011;8384;47.996;7.786;2023-06-22T01:50:02;8.43;;;7.40;;
16543;SDS011;8384;47.996;7.786;2023-06-22T01:52:28;10.73;;;8.03;;
16543;SDS011;8384;47.996;7.786;2023-06-22T01:54:53;10.67;;;7.60;;
16543;SDS011;8384;47.996;7.786;2023-06-22T01:57:19;14.80;;;9.27;;
16543;SDS011;8384;47.996;7.786;2023-06-22T02:02:16;11.57;;;7.87;;
16543;SDS011;8384;47.996;7.786;2023-06-22T02:04:51;8.23;;;7.43;;
16543;SDS011;8384;47.996;7.786;2023-06-22T02:07:31;13.23;;;8.33;;
16543;SDS011;8384;47.996;7.786;2023-06-22T02:09:59;12.67;;;8.77;;
16543;SDS011;8384;47.996;7.786;2023-06-22T02:12:26;11.63;;;8.17;;
16543;SDS011;8384;47.996;7.786;2023-06-22T02:14:54;14.60;;;9.47;;
16543;SDS011;8384;47.996;7.786;2023-06-22T02:17:20;14.10;;;11.37;;
16543;SDS011;8384;47.996;7.786;2023-06-22T02:19:45;16.07;;;12.53;;
16543;SDS011;8384;47.996;7.786;2023-06-22T02:22:11;14.53;;;12.80;;
16543;SDS011;8384;47.996;7.786;2023-06-22T02:24:37;15.27;;;12.23;;
16543;SDS011;8384;47.996;7.786;2023-06-22T02:27:03;13.30;;;11.00;;
16543;SDS011;8384;47.996;7.786;2023-06-22T02:29:29;19.07;;;15.00;;
16543;SDS011;8384;47.996;7.786;2023-06-22T02:31:54;13.93;;;12.50;;
16543;SDS011;8384;47.996;7.786;2023-06-22T02:34:20;14.80;;;11.93;;
16543;SDS011;8384;47.996;7.786;2023-06-22T02:36:47;14.63;;;13.17;;
16543;SDS011;8384;47.996;7.786;2023-06-22T02:39:20;16.47;;;13.50;;
16543;SDS011;8384;47.996;7.786;2023-06-22T02:41:47;17.33;;;15.80;;
16543;SDS011;8384;47.996;7.786;2023-06-22T02:44:16;15.70;;;13.10;;
16543;SDS011;8384;47.996;7.786;2023-06-22T02:46:42;18.70;;;15.83;;
16543;SDS011;8384;47.996;7.786;2023-06-22T02:49:07;17.70;;;15.43;;
16543;SDS011;8384;47.996;7.786;2023-06-22T02:51:33;14.97;;;13.47;;
16543;SDS011;8384;47.996;7.786;2023-06-22T02:53:59;15.97;;;13.73;;
16543;SDS011;8384;47.996;7.786;2023-06-22T02:56:24;15.10;;;12.40;;
16543;SDS011;8384;47.996;7.786;2023-06-22T02:58:50;15.53;;;12.73;;
16543;SDS011;8384;47.996;7.786;2023-06-22T03:01:16;15.73;;;14.00;;
16543;SDS011;8384;47.996;7.786;2023-06-22T03:03:41;14.83;;;12.40;;
16543;SDS011;8384;47.996;7.786;2023-06-22T03:06:06;16.10;;;13.10;;
16543;SDS011;8384;47.996;7.786;2023-06-22T03:08:31;18.80;;;14.63;;
16543;SDS011;8384;47.996;7.786;2023-06-22T03:10:57;15.30;;;12.97;;
16543;SDS011;8384;47.996;7.786;2023-06-22T03:13:22;15.43;;;13.83;;
16543;SDS011;8384;47.996;7.786;2023-06-22T03:15:48;18.77;;;15.47;;
16543;SDS011;8384;47.996;7.786;2023-06-22T03:18:14;16.33;;;14.40;;
16543;SDS011;8384;47.996;7.786;2023-06-22T03:20:40;13.77;;;12.37;;
16543;SDS011;8384;47.996;7.786;2023-06-22T03:23:06;13.13;;;12.03;;
16543;SDS011;8384;47.996;7.786;2023-06-22T03:25:31;16.57;;;13.67;;
16543;SDS011;8384;47.996;7.786;2023-06-22T03:27:56;18.80;;;15.67;;
16543;SDS011;8384;47.996;7.786;2023-06-22T03:30:21;16.23;;;13.50;;
16543;SDS011;8384;47.996;7.786;2023-06-22T03:32:47;16.53;;;14.03;;
16543;SDS011;8384;47.996;7.786;2023-06-22T03:35:12;15.07;;;13.17;;
16543;SDS011;8384;47.996;7.786;2023-06-22T03:37:38;13.73;;;12.53;;
16543;SDS011;8384;47.996;7.786;2023-06-22T03:40:04;15.53;;;14.07;;
16543;SDS011;8384;47.996;7.786;2023-06-22T03:42:30;14.80;;;13.37;;
16543;SDS011;8384;47.996;7.786;2023-06-22T03:44:55;15.60;;;14.00;;
16543;SDS011;8384;47.996;7.786;2023-06-22T03:47:20;14.87;;;13.40;;
16543;SDS011;8384;47.996;7.786;2023-06-22T03:49:46;16.77;;;13.50;;
16543;SDS011;8384;47.996;7.786;2023-06-22T03:52:11;18.30;;;13.90;;
16543;SDS011;8384;47.996;7.786;2023-06-22T03:54:36;13.67;;;12.27;;
16543;SDS011;8384;47.996;7.786;2023-06-22T03:57:02;13.00;;;11.63;;
16543;SDS011;8384;47.996;7.786;2023-06-22T03:59:27;14.00;;;12.43;;
16543;SDS011;8384;47.996;7.786;2023-06-22T04:01:53;14.30;;;12.83;;
16543;SDS011;8384;47.996;7.786;2023-06-22T04:04:18;13.00;;;11.67;;
16543;SDS011;8384;47.996;7.786;2023-06-22T04:06:43;13.33;;;11.97;;
16543;SDS011;8384;47.996;7.786;2023-06-22T04:09:09;12.20;;;10.93;;
16543;SDS011;8384;47.996;7.786;2023-06-22T04:11:34;12.33;;;10.70;;
16543;SDS011;8384;47.996;7.786;2023-06-22T04:13:59;11.77;;;10.53;;
16543;SDS011;8384;47.996;7.786;2023-06-22T04:16:25;11.93;;;10.27;;
16543;SDS011;8384;47.996;7.786;2023-06-22T04:18:50;10.90;;;9.80;;
16543;SDS011;8384;47.996;7.786;2023-06-22T04:21:15;12.50;;;10.13;;
16543;SDS011;8384;47.996;7.786;2023-06-22T04:23:41;10.97;;;9.97;;
16543;SDS011;8384;47.996;7.786;2023-06-22T04:26:06;11.70;;;10.43;;
16543;SDS011;8384;47.996;7.786;2023-06-22T04:28:31;15.23;;;11.37;;
16543;SDS011;8384;47.996;7.786;2023-06-22T04:31:00;16.90;;;11.83;;
16543;SDS011;8384;47.996;7.786;2023-06-22T04:33:26;13.00;;;11.37;;
16543;SDS011;8384;47.996;7.786;2023-06-22T04:35:52;14.97;;;11.30;;
16543;SDS011;8384;47.996;7.786;2023-06-22T04:38:17;14.97;;;10.50;;
16543;SDS011;8384;47.996;7.786;2023-06-22T04:40:42;12.20;;;10.37;;
16543;SDS011;8384;47.996;7.786;2023-06-22T04:43:07;11.70;;;10.50;;
16543;SDS011;8384;47.996;7.786;2023-06-22T04:45:35;11.57;;;10.37;;
16543;SDS011;8384;47.996;7.786;2023-06-22T04:48:03;14.13;;;11.53;;
16543;SDS011;8384;47.996;7.786;2023-06-22T04:50:28;13.07;;;11.00;;
16543;SDS011;8384;47.996;7.786;2023-06-22T04:52:54;15.03;;;11.27;;
16543;SDS011;8384;47.996;7.786;2023-06-22T04:55:19;12.93;;;11.07;;
16543;SDS011;8384;47.996;7.786;2023-06-22T04:57:45;11.70;;;10.50;;
16543;SDS011;8384;47.996;7.786;2023-06-22T05:00:14;14.40;;;10.20;;
16543;SDS011;8384;47.996;7.786;2023-06-22T05:02:44;12.83;;;10.90;;
16543;SDS011;8384;47.996;7.786;2023-06-22T05:05:10;13.37;;;10.10;;
16543;SDS011;8384;47.996;7.786;2023-06-22T05:07:39;14.03;;;10.83;;
16543;SDS011;8384;47.996;7.786;2023-06-22T05:10:08;14.07;;;9.90;;
16543;SDS011;8384;47.996;7.786;2023-06-22T05:12:34;12.17;;;9.33;;
16543;SDS011;8384;47.996;7.786;2023-06-22T05:15:00;12.80;;;9.33;;
16543;SDS011;8384;47.996;7.786;2023-06-22T05:17:26;10.20;;;9.13;;
16543;SDS011;8384;47.996;7.786;2023-06-22T05:19:51;12.23;;;10.63;;
16543;SDS011;8384;47.996;7.786;2023-06-22T05:22:17;13.00;;;11.23;;
16543;SDS011;8384;47.996;7.786;2023-06-22T05:24:42;13.87;;;11.43;;
16543;SDS011;8384;47.996;7.786;2023-06-22T05:27:09;12.40;;;11.13;;
16543;SDS011;8384;47.996;7.786;2023-06-22T05:29:35;13.83;;;11.30;;
16543;SDS011;8384;47.996;7.786;2023-06-22T05:32:01;12.45;;;11.18;;
16543;SDS011;8384;47.996;7.786;2023-06-22T05:34:27;13.07;;;11.68;;
16543;SDS011;8384;47.996;7.786;2023-06-22T05:36:52;14.77;;;12.60;;
16543;SDS011;8384;47.996;7.786;2023-06-22T05:39:17;13.40;;;12.20;;
16543;SDS011;8384;47.996;7.786;2023-06-22T05:41:44;14.40;;;11.90;;
16543;SDS011;8384;47.996;7.786;2023-06-22T05:44:10;12.65;;;11.38;;
16543;SDS011;8384;47.996;7.786;2023-06-22T05:46:35;12.65;;;10.93;;
16543;SDS011;8384;47.996;7.786;2023-06-22T05:49:01;11.00;;;9.97;;
16543;SDS011;8384;47.996;7.786;2023-06-22T05:51:26;11.80;;;9.40;;
16543;SDS011;8384;47.996;7.786;2023-06-22T05:53:51;11.67;;;10.47;;
16543;SDS011;8384;47.996;7.786;2023-06-22T05:56:17;13.75;;;11.40;;
16543;SDS011;8384;47.996;7.786;2023-06-22T05:58:42;12.98;;;11.57;;
16543;SDS011;8384;47.996;7.786;2023-06-22T06:01:08;14.47;;;12.00;;
16543;SDS011;8384;47.996;7.786;2023-06-22T06:03:33;15.47;;;14.00;;
16543;SDS011;8384;47.996;7.786;2023-06-22T06:05:58;17.37;;;15.73;;
16543;SDS011;8384;47.996;7.786;2023-06-22T06:08:23;17.10;;;15.50;;
16543;SDS011;8384;47.996;7.786;2023-06-22T06:10:49;19.03;;;17.40;;
16543;SDS011;8384;47.996;7.786;2023-06-22T06:13:14;19.90;;;17.90;;
16543;SDS011;8384;47.996;7.786;2023-06-22T06:15:40;18.13;;;16.47;;
16543;SDS011;8384;47.996;7.786;2023-06-22T06:18:05;19.37;;;17.57;;
16543;SDS011;8384;47.996;7.786;2023-06-22T06:20:32;18.97;;;17.30;;
16543;SDS011;8384;47.996;7.786;2023-06-22T06:22:57;18.33;;;16.63;;
16543;SDS011;8384;47.996;7.786;2023-06-22T06:25:23;16.85;;;15.35;;
16543;SDS011;8384;47.996;7.786;2023-06-22T06:27:49;19.02;;;17.33;;
16543;SDS011;8384;47.996;7.786;2023-06-22T06:30:16;21.05;;;19.15;;
16543;SDS011;8384;47.996;7.786;2023-06-22T06:32:42;19.00;;;17.27;;
16543;SDS011;8384;47.996;7.786;2023-06-22T06:35:10;18.75;;;17.15;;
16543;SDS011;8384;47.996;7.786;2023-06-22T06:37:37;20.23;;;18.33;;
16543;SDS011;8384;47.996;7.786;2023-06-22T06:40:07;19.63;;;17.90;;
16543;SDS011;8384;47.996;7.786;2023-06-22T06:42:35;18.10;;;16.35;;
16543;SDS011;8384;47.996;7.786;2023-06-22T06:45:02;18.02;;;16.33;;
16543;SDS011;8384;47.996;7.786;2023-06-22T06:47:29;19.63;;;17.65;;
16543;SDS011;8384;47.996;7.786;2023-06-22T06:49:54;19.55;;;17.85;;
16543;SDS011;8384;47.996;7.786;2023-06-22T06:52:19;18.57;;;16.97;;
16543;SDS011;8384;47.996;7.786;2023-06-22T06:54:45;18.23;;;16.63;;
16543;SDS011;8384;47.996;7.786;2023-06-22T06:57:10;19.33;;;17.53;;
16543;SDS011;8384;47.996;7.786;2023-06-22T06:59:38;18.98;;;17.27;;
16543;SDS011;8384;47.996;7.786;2023-06-22T07:02:04;18.17;;;16.67;;
16543;SDS011;8384;47.996;7.786;2023-06-22T07:04:29;17.73;;;16.23;;
16543;SDS011;8384;47.996;7.786;2023-06-22T07:06:55;19.00;;;17.30;;
16543;SDS011;8384;47.996;7.786;2023-06-22T07:09:20;20.27;;;18.33;;
16543;SDS011;8384;47.996;7.786;2023-06-22T07:11:45;18.77;;;17.08;;
16543;SDS011;8384;47.996;7.786;2023-06-22T07:14:10;17.57;;;16.00;;
16543;SDS011;8384;47.996;7.786;2023-06-22T07:16:36;15.43;;;13.93;;
16543;SDS011;8384;47.996;7.786;2023-06-22T07:19:01;14.30;;;12.85;;
16543;SDS011;8384;47.996;7.786;2023-06-22T07:21:26;14.70;;;13.30;;
16543;SDS011;8384;47.996;7.786;2023-06-22T07:23:51;12.70;;;11.60;;
16543;SDS011;8384;47.996;7.786;2023-06-22T07:26:17;11.55;;;10.55;;
16543;SDS011;8384;47.996;7.786;2023-06-22T07:28:42;13.83;;;12.43;;
16543;SDS011;8384;47.996;7.786;2023-06-22T07:31:08;15.00;;;13.50;;
16543;SDS011;8384;47.996;7.786;2023-06-22T07:33:33;13.37;;;12.07;;
16543;SDS011;8384;47.996;7.786;2023-06-22T07:35:58;15.20;;;13.87;;
16543;SDS011;8384;47.996;7.786;2023-06-22T07:38:24;13.30;;;12.07;;
16543;SDS011;8384;47.996;7.786;2023-06-22T07:40:49;15.00;;;13.43;;
16543;SDS011;8384;47.996;7.786;2023-06-22T07:43:15;13.50;;;12.10;;
16543;SDS011;8384;47.996;7.786;2023-06-22T07:45:41;14.40;;;12.98;;
16543;SDS011;8384;47.996;7.786;2023-06-22T07:48:16;13.98;;;12.60;;
16543;SDS011;8384;47.996;7.786;2023-06-22T07:50:42;13.90;;;12.40;;
16543;SDS011;8384;47.996;7.786;2023-06-22T07:53:07;14.00;;;12.70;;
16543;SDS011;8384;47.996;7.786;2023-06-22T07:55:32;12.83;;;11.63;;
16543;SDS011;8384;47.996;7.786;2023-06-22T07:57:57;13.30;;;11.32;;
16543;SDS011;8384;47.996;7.786;2023-06-22T08:00:23;11.50;;;10.10;;
16543;SDS011;8384;47.996;7.786;2023-06-22T08:02:48;13.30;;;10.47;;
16543;SDS011;8384;47.996;7.786;2023-06-22T08:05:14;11.75;;;10.50;;
16543;SDS011;8384;47.996;7.786;2023-06-22T08:07:40;11.50;;;10.25;;
16543;SDS011;8384;47.996;7.786;2023-06-22T08:10:05;13.33;;;11.60;;
16543;SDS011;8384;47.996;7.786;2023-06-22T08:12:31;13.18;;;10.80;;
16543;SDS011;8384;47.996;7.786;2023-06-22T08:14:56;10.80;;;9.80;;
16543;SDS011;8384;47.996;7.786;2023-06-22T08:17:23;10.20;;;9.30;;
16543;SDS011;8384;47.996;7.786;2023-06-22T08:19:49;10.13;;;9.13;;
16543;SDS011;8384;47.996;7.786;2023-06-22T08:22:15;9.87;;;8.87;;
16543;SDS011;8384;47.996;7.786;2023-06-22T08:24:41;10.90;;;9.80;;
16543;SDS011;8384;47.996;7.786;2023-06-22T08:27:09;10.10;;;9.10;;
16543;SDS011;8384;47.996;7.786;2023-06-22T08:29:36;10.32;;;9.38;;
16543;SDS011;8384;47.996;7.786;2023-06-22T08:32:02;10.07;;;8.98;;
16543;SDS011;8384;47.996;7.786;2023-06-22T08:34:27;10.27;;;9.30;;
16543;SDS011;8384;47.996;7.786;2023-06-22T08:36:53;11.07;;;9.90;;
16543;SDS011;8384;47.996;7.786;2023-06-22T08:39:19;10.67;;;9.57;;
16543;SDS011;8384;47.996;7.786;2023-06-22T08:41:45;9.85;;;8.85;;
16543;SDS011;8384;47.996;7.786;2023-06-22T08:44:14;9.50;;;8.32;;
16543;SDS011;8384;47.996;7.786;2023-06-22T08:46:40;9.05;;;7.80;;
16543;SDS011;8384;47.996;7.786;2023-06-22T08:49:06;9.60;;;8.67;;
16543;SDS011;8384;47.996;7.786;2023-06-22T08:51:32;9.37;;;8.37;;
16543;SDS011;8384;47.996;7.786;2023-06-22T08:53:57;9.00;;;7.63;;
16543;SDS011;8384;47.996;7.786;2023-06-22T08:56:23;8.03;;;7.03;;
16543;SDS011;8384;47.996;7.786;2023-06-22T08:58:48;10.70;;;7.27;;
16543;SDS011;8384;47.996;7.786;2023-06-22T09:01:13;10.00;;;7.00;;
16543;SDS011;8384;47.996;7.786;2023-06-22T09:03:40;8.53;;;7.03;;
16543;SDS011;8384;47.996;7.786;2023-06-22T09:06:05;8.90;;;7.97;;
16543;SDS011;8384;47.996;7.786;2023-06-22T09:08:31;8.20;;;7.40;;
16543;SDS011;8384;47.996;7.786;2023-06-22T09:10:57;9.97;;;7.20;;
16543;SDS011;8384;47.996;7.786;2023-06-22T09:13:22;9.63;;;7.23;;
16543;SDS011;8384;47.996;7.786;2023-06-22T09:15:47;9.20;;;7.40;;
16543;SDS011;8384;47.996;7.786;2023-06-22T09:18:13;9.73;;;7.80;;
16543;SDS011;8384;47.996;7.786;2023-06-22T09:20:38;9.37;;;7.43;;
16543;SDS011;8384;47.996;7.786;2023-06-22T09:23:04;10.30;;;6.90;;
16543;SDS011;8384;47.996;7.786;2023-06-22T09:25:29;11.07;;;8.23;;
16543;SDS011;8384;47.996;7.786;2023-06-22T09:27:54;10.00;;;7.13;;
16543;SDS011;8384;47.996;7.786;2023-06-22T09:30:20;7.60;;;6.90;;
16543;SDS011;8384;47.996;7.786;2023-06-22T09:32:45;7.87;;;6.70;;
16543;SDS011;8384;47.996;7.786;2023-06-22T09:35:10;10.53;;;6.70;;
16543;SDS011;8384;47.996;7.786;2023-06-22T09:37:38;7.43;;;6.73;;
16543;SDS011;8384;47.996;7.786;2023-06-22T09:40:03;8.17;;;6.53;;
16543;SDS011;8384;47.996;7.786;2023-06-22T09:42:33;8.93;;;6.90;;
16543;SDS011;8384;47.996;7.786;2023-06-22T09:44:59;10.43;;;7.20;;
16543;SDS011;8384;47.996;7.786;2023-06-22T09:47:24;11.17;;;7.13;;
16543;SDS011;8384;47.996;7.786;2023-06-22T09:49:50;10.33;;;7.10;;
16543;SDS011;8384;47.996;7.786;2023-06-22T09:52:15;9.90;;;6.93;;
16543;SDS011;8384;47.996;7.786;2023-06-22T09:54:41;8.03;;;7.10;;
16543;SDS011;8384;47.996;7.786;2023-06-22T09:57:06;9.03;;;6.60;;
16543;SDS011;8384;47.996;7.786;2023-06-22T09:59:31;8.70;;;6.50;;
16543;SDS011;8384;47.996;7.786;2023-06-22T10:01:57;10.10;;;6.90;;
16543;SDS011;8384;47.996;7.786;2023-06-22T10:04:22;10.43;;;6.73;;
16543;SDS011;8384;47.996;7.786;2023-06-22T10:06:47;8.77;;;6.80;;
16543;SDS011;8384;47.996;7.786;2023-06-22T10:09:12;10.47;;;7.37;;
16543;SDS011;8384;47.996;7.786;2023-06-22T10:11:38;9.23;;;6.87;;
16543;SDS011;8384;47.996;7.786;2023-06-22T10:14:03;10.10;;;6.57;;
16543;SDS011;8384;47.996;7.786;2023-06-22T10:16:32;13.23;;;7.57;;
16543;SDS011;8384;47.996;7.786;2023-06-22T10:18:58;8.27;;;6.53;;
16543;SDS011;8384;47.996;7.786;2023-06-22T10:21:27;10.97;;;6.87;;
16543;SDS011;8384;47.996;7.786;2023-06-22T10:23:53;9.87;;;7.03;;
16543;SDS011;8384;47.996;7.786;2023-06-22T10:26:19;12.00;;;7.30;;
16543;SDS011;8384;47.996;7.786;2023-06-22T10:28:44;7.70;;;6.90;;
16543;SDS011;8384;47.996;7.786;2023-06-22T10:31:09;8.23;;;7.10;;
16543;SDS011;8384;47.996;7.786;2023-06-22T10:33:35;9.57;;;7.33;;
16543;SDS011;8384;47.996;7.786;2023-06-22T10:36:00;10.50;;;7.57;;
16543;SDS011;8384;47.996;7.786;2023-06-22T10:38:25;10.63;;;7.30;;
16543;SDS011;8384;47.996;7.786;2023-06-22T10:40:50;9.40;;;6.40;;
16543;SDS011;8384;47.996;7.786;2023-06-22T10:43:16;8.97;;;7.43;;
16543;SDS011;8384;47.996;7.786;2023-06-22T10:45:41;8.70;;;7.80;;
16543;SDS011;8384;47.996;7.786;2023-06-22T10:48:06;12.77;;;9.00;;
16543;SDS011;8384;47.996;7.786;2023-06-22T10:50:31;10.80;;;8.43;;
16543;SDS011;8384;47.996;7.786;2023-06-22T10:52:57;10.90;;;8.00;;
16543;SDS011;8384;47.996;7.786;2023-06-22T10:55:22;9.77;;;7.90;;
16543;SDS011;8384;47.996;7.786;2023-06-22T10:57:48;10.87;;;8.80;;
16543;SDS011;8384;47.996;7.786;2023-06-22T11:00:13;10.33;;;8.70;;
16543;SDS011;8384;47.996;7.786;2023-06-22T11:02:40;8.93;;;7.33;;
16543;SDS011;8384;47.996;7.786;2023-06-22T11:05:05;9.23;;;8.23;;
16543;SDS011;8384;47.996;7.786;2023-06-22T11:07:31;10.50;;;8.37;;
16543;SDS011;8384;47.996;7.786;2023-06-22T11:09:57;10.13;;;7.93;;
16543;SDS011;8384;47.996;7.786;2023-06-22T11:12:23;12.40;;;8.33;;
16543;SDS011;8384;47.996;7.786;2023-06-22T11:14:48;10.07;;;8.27;;
16543;SDS011;8384;47.996;7.786;2023-06-22T11:17:16;11.53;;;8.43;;
16543;SDS011;8384;47.996;7.786;2023-06-22T11:19:41;10.17;;;8.43;;
16543;SDS011;8384;47.996;7.786;2023-06-22T11:22:07;13.13;;;8.67;;
16543;SDS011;8384;47.996;7.786;2023-06-22T11:24:32;11.53;;;7.60;;
16543;SDS011;8384;47.996;7.786;2023-06-22T11:26:57;10.80;;;8.23;;
16543;SDS011;8384;47.996;7.786;2023-06-22T11:29:23;9.97;;;8.93;;
16543;SDS011;8384;47.996;7.786;2023-06-22T11:31:48;10.30;;;8.13;;
16543;SDS011;8384;47.996;7.786;2023-06-22T11:34:13;12.87;;;8.43;;
16543;SDS011;8384;47.996;7.786;2023-06-22T11:36:38;11.37;;;8.83;;
16543;SDS011;8384;47.996;7.786;2023-06-22T11:39:04;14.57;;;9.40;;
16543;SDS011;8384;47.996;7.786;2023-06-22T11:41:30;10.50;;;9.00;;
16543;SDS011;8384;47.996;7.786;2023-06-22T11:43:55;11.00;;;8.93;;
16543;SDS011;8384;47.996;7.786;2023-06-22T11:46:20;11.97;;;9.33;;
16543;SDS011;8384;47.996;7.786;2023-06-22T11:48:46;13.80;;;11.00;;
16543;SDS011;8384;47.996;7.786;2023-06-22T11:51:11;14.00;;;10.67;;
16543;SDS011;8384;47.996;7.786;2023-06-22T11:53:36;11.83;;;9.53;;
16543;SDS011;8384;47.996;7.786;2023-06-22T11:56:01;14.80;;;9.10;;
16543;SDS011;8384;47.996;7.786;2023-06-22T11:58:27;13.70;;;9.40;;
16543;SDS011;8384;47.996;7.786;2023-06-22T12:00:53;13.50;;;8.97;;
16543;SDS011;8384;47.996;7.786;2023-06-22T12:03:19;12.47;;;8.83;;
16543;SDS011;8384;47.996;7.786;2023-06-22T12:05:44;11.23;;;8.60;;
16543;SDS011;8384;47.996;7.786;2023-06-22T12:08:09;12.40;;;9.30;;
16543;SDS011;8384;47.996;7.786;2023-06-22T12:10:35;11.37;;;8.87;;
16543;SDS011;8384;47.996;7.786;2023-06-22T12:13:00;12.20;;;8.87;;
16543;SDS011;8384;47.996;7.786;2023-06-22T12:15:26;11.73;;;9.17;;
16543;SDS011;8384;47.996;7.786;2023-06-22T12:17:51;10.43;;;8.70;;
16543;SDS011;8384;47.996;7.786;2023-06-22T12:20:17;11.53;;;9.43;;
16543;SDS011;8384;47.996;7.786;2023-06-22T12:22:42;12.50;;;9.00;;
16543;SDS011;8384;47.996;7.786;2023-06-22T12:25:08;11.33;;;9.23;;
16543;SDS011;8384;47.996;7.786;2023-06-22T12:27:34;14.10;;;10.30;;
16543;SDS011;8384;47.996;7.786;2023-06-22T12:30:00;11.03;;;9.50;;
16543;SDS011;8384;47.996;7.786;2023-06-22T12:32:25;10.23;;;8.93;;
16543;SDS011;8384;47.996;7.786;2023-06-22T12:34:51;9.73;;;8.40;;
16543;SDS011;8384;47.996;7.786;2023-06-22T12:37:16;11.10;;;7.43;;
16543;SDS011;8384;47.996;7.786;2023-06-22T12:39:42;11.70;;;7.70;;
16543;SDS011;8384;47.996;7.786;2023-06-22T12:42:08;9.77;;;7.33;;
16543;SDS011;8384;47.996;7.786;2023-06-22T12:44:34;9.97;;;7.50;;
16543;SDS011;8384;47.996;7.786;2023-06-22T12:47:00;10.50;;;7.07;;
16543;SDS011;8384;47.996;7.786;2023-06-22T12:49:25;12.50;;;7.17;;
16543;SDS011;8384;47.996;7.786;2023-06-22T12:51:50;12.10;;;6.57;;
16543;SDS011;8384;47.996;7.786;2023-06-22T12:54:16;13.30;;;5.80;;
16543;SDS011;8384;47.996;7.786;2023-06-22T12:56:41;10.97;;;6.27;;
16543;SDS011;8384;47.996;7.786;2023-06-22T12:59:08;8.90;;;6.13;;
16543;SDS011;8384;47.996;7.786;2023-06-22T13:01:34;9.13;;;6.07;;
16543;SDS011;8384;47.996;7.786;2023-06-22T13:03:59;9.67;;;6.50;;
16543;SDS011;8384;47.996;7.786;2023-06-22T13:06:24;9.90;;;6.00;;
16543;SDS011;8384;47.996;7.786;2023-06-22T13:08:50;9.07;;;5.97;;
16543;SDS011;8384;47.996;7.786;2023-06-22T13:11:16;13.20;;;6.37;;
16543;SDS011;8384;47.996;7.786;2023-06-22T13:13:41;11.50;;;6.10;;
16543;SDS011;8384;47.996;7.786;2023-06-22T13:16:07;13.17;;;6.50;;
16543;SDS011;8384;47.996;7.786;2023-06-22T13:18:32;10.00;;;6.20;;
16543;SDS011;8384;47.996;7.786;2023-06-22T13:21:00;9.97;;;6.57;;
16543;SDS011;8384;47.996;7.786;2023-06-22T13:23:25;11.77;;;6.87;;
16543;SDS011;8384;47.996;7.786;2023-06-22T13:25:51;11.07;;;6.33;;
16543;SDS011;8384;47.996;7.786;2023-06-22T13:28:16;10.40;;;6.20;;
16543;SDS011;8384;47.996;7.786;2023-06-22T13:30:42;11.63;;;6.53;;
16543;SDS011;8384;47.996;7.786;2023-06-22T13:33:08;12.97;;;6.07;;
16543;SDS011;8384;47.996;7.786;2023-06-22T13:35:33;10.03;;;6.63;;
16543;SDS011;8384;47.996;7.786;2023-06-22T13:38:00;12.10;;;6.57;;
16543;SDS011;8384;47.996;7.786;2023-06-22T13:40:25;12.17;;;6.83;;
16543;SDS011;8384;47.996;7.786;2023-06-22T13:42:50;11.90;;;6.53;;
16543;SDS011;8384;47.996;7.786;2023-06-22T13:45:16;11.43;;;6.20;;
16543;SDS011;8384;47.996;7.786;2023-06-22T13:47:42;14.27;;;6.00;;
16543;SDS011;8384;47.996;7.786;2023-06-22T13:50:07;12.13;;;6.47;;
16543;SDS011;8384;47.996;7.786;2023-06-22T13:52:33;11.53;;;6.23;;
16543;SDS011;8384;47.996;7.786;2023-06-22T13:54:58;13.10;;;6.40;;
16543;SDS011;8384;47.996;7.786;2023-06-22T13:57:24;11.13;;;6.17;;
16543;SDS011;8384;47.996;7.786;2023-06-22T13:59:49;11.83;;;6.80;;
16543;SDS011;8384;47.996;7.786;2023-06-22T14:02:14;12.17;;;6.37;;
16543;SDS011;8384;47.996;7.786;2023-06-22T14:04:39;10.40;;;6.57;;
16543;SDS011;8384;47.996;7.786;2023-06-22T14:07:05;9.10;;;5.50;;
16543;SDS011;8384;47.996;7.786;2023-06-22T14:09:30;9.50;;;5.50;;
16543;SDS011;8384;47.996;7.786;2023-06-22T14:11:55;12.73;;;5.70;;
16543;SDS011;8384;47.996;7.786;2023-06-22T14:14:21;11.40;;;6.00;;
16543;SDS011;8384;47.996;7.786;2023-06-22T14:16:46;10.70;;;5.33;;
16543;SDS011;8384;47.996;7.786;2023-06-22T14:19:12;10.53;;;5.97;;
16543;SDS011;8384;47.996;7.786;2023-06-22T14:21:38;9.30;;;5.70;;
16543;SDS011;8384;47.996;7.786;2023-06-22T14:24:03;9.67;;;5.73;;
16543;SDS011;8384;47.996;7.786;2023-06-22T14:26:28;9.70;;;5.37;;
16543;SDS011;8384;47.996;7.786;2023-06-22T14:28:54;9.53;;;5.93;;
16543;SDS011;8384;47.996;7.786;2023-06-22T14:31:19;9.07;;;5.77;;
16543;SDS011;8384;47.996;7.786;2023-06-22T14:33:48;13.43;;;6.30;;
16543;SDS011;8384;47.996;7.786;2023-06-22T14:36:17;8.60;;;5.80;;
16543;SDS011;8384;47.996;7.786;2023-06-22T14:38:43;10.73;;;5.80;;
16543;SDS011;8384;47.996;7.786;2023-06-22T14:41:09;8.47;;;5.90;;
16543;SDS011;8384;47.996;7.786;2023-06-22T14:43:34;8.93;;;5.73;;